Phillips, Wisconsin
Current Conditions -  °F | °C
As of 3:15 PM on Saturday 22 Nov 2014 (Local Time) from KPBH Reporting Station
Haze Haze  
Wind Chill: 26°   Ceiling: 400
Heat Index: 33°   Visibility: 5mi
Dew Point: 32°   Wind: 8mph
Humidity: 96%   Direction: 190°S
Pressure: 29.69"   Gusts: NA
Location:  45.69°N, 90.41°W
Report Text: KPBH 222115Z AUTO 19007KT 5SM BR OVC004 01/00 A2969 RMK AO2 T00051001
Loading
Personal Weather Stations






























Interactive Weather Map New forecast layout! Learn more

10-Day Weather Forecast

Advertisements
Track Severe Weather on mobile